Time;durP1;ratioP1;P1;durP2;ratioP2;P2;SDS_P1;SDS_P2;PMS_P1;PMS_P2;Temp;Humidity;BMP_temperature;BMP_pressure;BME280_temperature;BME280_humidity;BME280_pressure;Samples;Min_cycle;Max_cycle;Signal;HPM_P1;HPM_P2
2024/01/25 00:01:52;;;;;;;;;;;5.60;99.90;;;;;;5037720;28;19969;-88
2024/01/25 00:04:17;;;;;;;;;;;5.60;99.90;;;;;;5033363;28;19984;-87
2024/01/25 00:06:43;;;;;;;;;;;5.60;99.90;;;;;;5029942;28;20315;-88
2024/01/25 00:09:08;;;;;;;;;;;5.60;99.90;;;;;;5036552;28;19947;-87
2024/01/25 00:11:35;;;;;;;;;;;5.70;99.90;;;;;;5027956;28;20042;-88
2024/01/25 00:14:00;;;;;;;;;;;5.80;99.90;;;;;;5038100;28;19996;-89
2024/01/25 00:16:27;;;;;;;;;;;5.60;99.90;;;;;;5031504;28;20354;-88
2024/01/25 00:18:52;;;;;;;;;;;5.60;99.90;;;;;;5029347;28;20451;-88
2024/01/25 00:21:18;;;;;;;;;;;5.50;99.90;;;;;;5030399;28;20056;-88
2024/01/25 00:23:43;;;;;;;;;;;5.60;99.90;;;;;;5029823;28;19934;-88
2024/01/25 00:26:09;;;;;;;;;;;5.60;99.90;;;;;;5031109;28;19939;-87
2024/01/25 00:28:34;;;;;;;;;;;5.70;99.90;;;;;;5024541;28;21283;-87
2024/01/25 00:31:00;;;;;;;;;;;5.60;99.90;;;;;;5025850;28;19944;-87
2024/01/25 00:33:25;;;;;;;;;;;5.60;99.90;;;;;;5036349;28;20679;-88
2024/01/25 00:35:51;;;;;;;;;;;5.50;99.90;;;;;;5032917;28;20345;-87
2024/01/25 00:38:17;;;;;;;;;;;5.50;99.90;;;;;;5030537;28;19952;-88
2024/01/25 00:40:42;;;;;;;;;;;5.50;99.90;;;;;;5031441;28;19945;-88
2024/01/25 00:43:08;;;;;;;;;;;5.40;99.90;;;;;;5031334;28;20199;-88
2024/01/25 00:45:34;;;;;;;;;;;5.20;99.90;;;;;;5035169;28;19954;-87
2024/01/25 00:48:00;;;;;;;;;;;5.10;99.90;;;;;;5036236;28;19952;-88
2024/01/25 00:50:26;;;;;;;;;;;5.00;99.90;;;;;;5031216;28;20397;-88
2024/01/25 00:52:52;;;;;;;;;;;4.80;99.90;;;;;;5034094;28;19974;-87
2024/01/25 00:55:18;;;;;;;;;;;4.80;99.90;;;;;;5023227;28;20674;-87
2024/01/25 00:57:43;;;;;;;;;;;4.80;99.90;;;;;;5024318;28;20299;-88
2024/01/25 01:00:09;;;;;;;;;;;4.80;99.90;;;;;;5023689;28;20384;-86
2024/01/25 01:02:35;;;;;;;;;;;4.90;99.90;;;;;;5031114;28;20064;-89
2024/01/25 01:05:01;;;;;;;;;;;4.90;99.90;;;;;;5034740;28;19998;-87
2024/01/25 01:07:27;;;;;;;;;;;5.00;99.90;;;;;;5034197;28;20084;-88
2024/01/25 01:09:52;;;;;;;;;;;4.90;99.90;;;;;;5035773;28;19953;-89
2024/01/25 01:12:18;;;;;;;;;;;4.80;99.90;;;;;;5029857;28;19997;-88
2024/01/25 01:14:43;;;;;;;;;;;4.70;99.90;;;;;;5032255;28;20065;-87
2024/01/25 01:17:09;;;;;;;;;;;4.70;99.90;;;;;;5024448;28;20940;-89
2024/01/25 01:19:34;;;;;;;;;;;4.60;99.90;;;;;;5030919;28;19941;-88
2024/01/25 01:22:00;;;;;;;;;;;4.60;99.90;;;;;;5033064;28;19943;-89
2024/01/25 01:24:25;;;;;;;;;;;4.60;99.90;;;;;;5034065;28;20217;-88
2024/01/25 01:26:51;;;;;;;;;;;4.50;99.90;;;;;;5030383;28;19951;-88
2024/01/25 01:29:17;;;;;;;;;;;4.50;99.90;;;;;;5037476;28;20554;-88
2024/01/25 01:31:44;;;;;;;;;;;4.50;99.90;;;;;;5030289;28;20415;-88
2024/01/25 01:34:09;;;;;;;;;;;4.60;99.90;;;;;;5030624;28;19942;-87
2024/01/25 01:36:35;;;;;;;;;;;4.70;99.90;;;;;;5031458;28;20137;-89
2024/01/25 01:39:00;;;;;;;;;;;4.70;99.90;;;;;;5031694;28;20034;-87
2024/01/25 01:41:29;;;;;;;;;;;4.70;99.90;;;;;;5030810;28;20050;-88
2024/01/25 01:43:54;;;;;;;;;;;4.70;99.90;;;;;;5030283;28;19930;-88
2024/01/25 01:46:40;;;;;;;;;;;4.70;99.90;;;;;;5031430;28;20885;-89
2024/01/25 01:49:06;;;;;;;;;;;4.60;99.90;;;;;;5037528;28;20133;-87
2024/01/25 01:51:32;;;;;;;;;;;4.50;99.90;;;;;;5040083;28;20478;-88
2024/01/25 01:53:59;;;;;;;;;;;4.60;99.90;;;;;;5033394;28;19944;-87
2024/01/25 01:56:26;;;;;;;;;;;4.40;99.90;;;;;;5036200;28;19934;-88
2024/01/25 01:58:52;;;;;;;;;;;4.30;99.90;;;;;;5029351;28;20390;-89
2024/01/25 02:01:18;;;;;;;;;;;4.20;99.90;;;;;;5033219;28;19939;-88
2024/01/25 02:03:45;;;;;;;;;;;4.20;99.90;;;;;;5033033;28;19948;-88
2024/01/25 02:06:10;;;;;;;;;;;4.20;99.90;;;;;;5034280;28;19939;-89
2024/01/25 02:08:36;;;;;;;;;;;4.20;99.90;;;;;;5024254;28;20092;-88
2024/01/25 02:11:02;;;;;;;;;;;4.10;99.90;;;;;;5025345;28;20359;-88
2024/01/25 02:13:27;;;;;;;;;;;4.30;99.90;;;;;;5038589;28;19944;-90
2024/01/25 02:15:53;;;;;;;;;;;4.30;99.90;;;;;;5031706;28;20051;-90
2024/01/25 02:18:18;;;;;;;;;;;4.20;99.90;;;;;;5028754;28;20410;-87
2024/01/25 02:20:44;;;;;;;;;;;4.20;99.90;;;;;;5028504;28;19929;-88
2024/01/25 02:23:09;;;;;;;;;;;4.20;99.90;;;;;;5031862;28;19942;-87
2024/01/25 02:25:35;;;;;;;;;;;4.20;99.90;;;;;;5033569;28;19992;-88
2024/01/25 02:28:00;;;;;;;;;;;4.20;99.90;;;;;;5032982;28;20769;-89
2024/01/25 02:30:26;;;;;;;;;;;4.20;99.90;;;;;;5025153;28;19960;-88
2024/01/25 02:32:52;;;;;;;;;;;4.30;99.90;;;;;;5026967;28;19938;-89
2024/01/25 02:35:18;;;;;;;;;;;4.40;99.90;;;;;;5036049;28;19936;-87
2024/01/25 02:37:43;;;;;;;;;;;4.60;99.90;;;;;;5030803;28;19951;-87
2024/01/25 02:40:09;;;;;;;;;;;4.70;99.90;;;;;;5032398;28;19943;-88
2024/01/25 02:42:34;;;;;;;;;;;4.90;99.90;;;;;;5032308;28;19946;-88
2024/01/25 02:45:00;;;;;;;;;;;4.90;99.90;;;;;;5036329;28;19958;-88
2024/01/25 02:47:26;;;;;;;;;;;5.00;99.90;;;;;;5033563;28;19944;-89
2024/01/25 02:49:51;;;;;;;;;;;5.00;99.90;;;;;;5033634;28;19979;-88
2024/01/25 02:52:17;;;;;;;;;;;4.90;99.90;;;;;;5035675;28;19953;-87
2024/01/25 02:54:42;;;;;;;;;;;4.90;99.90;;;;;;5036183;28;19947;-88
2024/01/25 02:57:08;;;;;;;;;;;5.00;99.90;;;;;;5034505;28;20034;-87
2024/01/25 02:59:33;;;;;;;;;;;5.00;99.90;;;;;;5027684;28;19943;-88
2024/01/25 03:01:59;;;;;;;;;;;5.00;99.90;;;;;;5029391;28;20014;-88
2024/01/25 03:04:24;;;;;;;;;;;5.00;99.90;;;;;;5031860;28;19957;-89
2024/01/25 03:06:50;;;;;;;;;;;5.10;99.90;;;;;;5034712;28;20336;-88
2024/01/25 03:09:15;;;;;;;;;;;5.10;99.90;;;;;;5032041;28;20060;-87
2024/01/25 03:11:41;;;;;;;;;;;5.10;99.90;;;;;;5034028;28;20151;-89
2024/01/25 03:14:06;;;;;;;;;;;5.10;99.90;;;;;;5036231;28;20388;-89
2024/01/25 03:16:32;;;;;;;;;;;5.10;99.90;;;;;;5027497;28;20438;-90
2024/01/25 03:19:19;;;;;;;;;;;5.10;99.90;;;;;;5031151;28;19987;-88
2024/01/25 03:21:45;;;;;;;;;;;5.10;99.90;;;;;;5026910;28;20321;-89
2024/01/25 03:24:11;;;;;;;;;;;5.10;99.90;;;;;;5022831;28;20054;-89
2024/01/25 03:26:36;;;;;;;;;;;5.10;99.90;;;;;;5033395;28;20049;-87
2024/01/25 03:29:02;;;;;;;;;;;5.10;99.90;;;;;;5031772;28;20433;-89
2024/01/25 03:31:28;;;;;;;;;;;5.20;99.90;;;;;;5030783;28;20385;-87
2024/01/25 03:33:53;;;;;;;;;;;5.20;99.90;;;;;;5030294;28;20427;-88
2024/01/25 03:36:19;;;;;;;;;;;5.20;99.90;;;;;;5029313;28;20068;-88
2024/01/25 03:38:44;;;;;;;;;;;5.20;99.90;;;;;;5026935;28;20275;-88
2024/01/25 03:41:10;;;;;;;;;;;5.20;99.90;;;;;;5029940;28;19965;-88
2024/01/25 03:43:35;;;;;;;;;;;5.30;99.90;;;;;;5030762;28;19945;-89
2024/01/25 03:46:02;;;;;;;;;;;5.30;99.90;;;;;;5037477;28;21258;-87
2024/01/25 03:48:28;;;;;;;;;;;5.40;99.90;;;;;;5028994;28;19957;-88
2024/01/25 03:50:56;;;;;;;;;;;5.40;99.90;;;;;;5034028;28;20286;-89
2024/01/25 03:53:22;;;;;;;;;;;5.60;99.90;;;;;;5036202;28;19953;-88
2024/01/25 03:55:48;;;;;;;;;;;5.70;99.90;;;;;;5029263;28;19998;-89
2024/01/25 03:58:14;;;;;;;;;;;5.80;99.90;;;;;;5028508;28;19952;-89
2024/01/25 04:00:40;;;;;;;;;;;5.80;99.90;;;;;;5034034;28;19949;-88
2024/01/25 04:03:05;;;;;;;;;;;5.90;99.90;;;;;;5034327;28;20421;-88
2024/01/25 04:05:31;;;;;;;;;;;6.00;99.90;;;;;;5032760;28;19987;-88
2024/01/25 04:07:57;;;;;;;;;;;6.10;99.90;;;;;;5034237;28;20004;-88
2024/01/25 04:10:22;;;;;;;;;;;6.20;99.90;;;;;;5036007;28;19955;-88
2024/01/25 04:12:48;;;;;;;;;;;6.20;99.90;;;;;;5030092;28;19950;-88
2024/01/25 04:15:13;;;;;;;;;;;6.30;99.90;;;;;;5027162;28;20349;-89
2024/01/25 04:17:39;;;;;;;;;;;6.40;99.90;;;;;;5030790;28;20390;-88
2024/01/25 04:20:05;;;;;;;;;;;6.40;99.90;;;;;;5037564;28;19952;-90
2024/01/25 04:22:30;;;;;;;;;;;6.50;99.90;;;;;;5029694;28;20002;-88
2024/01/25 04:24:56;;;;;;;;;;;6.50;99.90;;;;;;5035142;28;19947;-88
2024/01/25 04:27:21;;;;;;;;;;;6.50;99.90;;;;;;5033411;28;20533;-88
2024/01/25 04:29:47;;;;;;;;;;;6.50;99.90;;;;;;5036942;28;20244;-88
2024/01/25 04:32:13;;;;;;;;;;;6.50;99.90;;;;;;5033411;28;20077;-88
2024/01/25 04:34:39;;;;;;;;;;;6.40;99.90;;;;;;5031529;28;19942;-89
2024/01/25 04:37:04;;;;;;;;;;;6.30;99.90;;;;;;5029515;28;20337;-89
2024/01/25 04:39:30;;;;;;;;;;;6.40;99.90;;;;;;5028578;28;19933;-89
2024/01/25 04:41:55;;;;;;;;;;;6.50;99.90;;;;;;5029973;28;20045;-87
2024/01/25 04:44:21;;;;;;;;;;;6.60;99.90;;;;;;5035522;28;20453;-88
2024/01/25 04:46:46;;;;;;;;;;;6.70;99.90;;;;;;5036350;28;20499;-88
2024/01/25 04:49:12;;;;;;;;;;;6.80;99.90;;;;;;5034517;28;20433;-88
2024/01/25 04:51:37;;;;;;;;;;;6.90;99.90;;;;;;5040412;28;20476;-88
2024/01/25 04:54:03;;;;;;;;;;;6.90;99.90;;;;;;5032695;28;20415;-88
2024/01/25 04:56:28;;;;;;;;;;;7.00;99.90;;;;;;5035778;28;20425;-88
2024/01/25 04:58:54;;;;;;;;;;;7.00;99.90;;;;;;5031440;28;19939;-88
2024/01/25 05:01:20;;;;;;;;;;;7.10;99.90;;;;;;5030452;28;19946;-87
2024/01/25 05:03:45;;;;;;;;;;;7.10;99.90;;;;;;5032008;28;19974;-87
2024/01/25 05:06:11;;;;;;;;;;;7.10;99.90;;;;;;5034974;28;19941;-89
2024/01/25 05:08:36;;;;;;;;;;;7.20;99.90;;;;;;5028663;28;19983;-89
2024/01/25 05:11:02;;;;;;;;;;;7.30;99.90;;;;;;5030361;28;19993;-88
2024/01/25 05:13:28;;;;;;;;;;;7.40;99.90;;;;;;5028105;28;19933;-87
2024/01/25 05:15:53;;;;;;;;;;;7.60;99.90;;;;;;5029220;28;19945;-89
2024/01/25 05:18:19;;;;;;;;;;;7.90;99.90;;;;;;5032219;28;20396;-88
2024/01/25 05:20:45;;;;;;;;;;;8.20;99.90;;;;;;5026327;28;20419;-89
2024/01/25 05:23:10;;;;;;;;;;;8.30;99.90;;;;;;5032024;28;19950;-91
2024/01/25 05:25:36;;;;;;;;;;;8.40;99.90;;;;;;5034684;28;19944;-88
2024/01/25 05:28:02;;;;;;;;;;;8.40;99.90;;;;;;5029993;28;19952;-87
2024/01/25 05:30:27;;;;;;;;;;;8.50;99.90;;;;;;5028311;28;19976;-87
2024/01/25 05:32:54;;;;;;;;;;;8.40;99.90;;;;;;5034367;28;19984;-88
2024/01/25 05:35:19;;;;;;;;;;;8.50;99.90;;;;;;5042525;28;20406;-87
2024/01/25 05:37:45;;;;;;;;;;;8.50;99.90;;;;;;5030410;28;19954;-87
2024/01/25 05:40:11;;;;;;;;;;;8.50;99.90;;;;;;5037189;28;20476;-87
2024/01/25 05:42:36;;;;;;;;;;;8.50;99.90;;;;;;5032056;28;19948;-88
2024/01/25 05:45:03;;;;;;;;;;;8.50;99.90;;;;;;5035439;28;19958;-87
2024/01/25 05:47:29;;;;;;;;;;;8.50;99.90;;;;;;5033809;28;20587;-87
2024/01/25 05:49:55;;;;;;;;;;;8.60;99.90;;;;;;5029710;28;19970;-88
2024/01/25 05:52:21;;;;;;;;;;;8.50;99.90;;;;;;5030122;28;19944;-89
2024/01/25 05:54:47;;;;;;;;;;;8.60;99.90;;;;;;5032856;28;20343;-89
2024/01/25 05:57:13;;;;;;;;;;;8.60;99.90;;;;;;5030989;28;20412;-88
2024/01/25 05:59:38;;;;;;;;;;;8.60;99.90;;;;;;5026070;28;20466;-88
2024/01/25 06:02:04;;;;;;;;;;;8.60;99.90;;;;;;5026590;28;20006;-89
2024/01/25 06:04:30;;;;;;;;;;;8.60;99.90;;;;;;5028643;28;19949;-88
2024/01/25 06:06:55;;;;;;;;;;;8.60;99.90;;;;;;5030924;28;19940;-87
2024/01/25 06:09:21;;;;;;;;;;;8.60;99.90;;;;;;5036526;28;20003;-88
2024/01/25 06:11:46;;;;;;;;;;;8.70;99.90;;;;;;5034328;28;19938;-89
2024/01/25 06:14:12;;;;;;;;;;;8.70;99.90;;;;;;5029147;28;20057;-88
2024/01/25 06:16:37;;;;;;;;;;;8.80;99.90;;;;;;5029108;28;19943;-88
2024/01/25 06:19:03;;;;;;;;;;;8.70;99.90;;;;;;5027786;28;19955;-88
2024/01/25 06:21:29;;;;;;;;;;;8.70;99.90;;;;;;5030314;28;19981;-89
2024/01/25 06:23:54;;;;;;;;;;;8.80;99.90;;;;;;5032519;28;20433;-89
2024/01/25 06:26:20;;;;;;;;;;;8.80;99.90;;;;;;5031551;28;20081;-89
2024/01/25 06:28:46;;;;;;;;;;;8.80;99.90;;;;;;5028807;28;19956;-89
2024/01/25 06:31:11;;;;;;;;;;;8.80;99.90;;;;;;5027737;28;20338;-88
2024/01/25 06:33:37;;;;;;;;;;;8.80;99.90;;;;;;5034585;28;20411;-88
2024/01/25 06:36:03;;;;;;;;;;;8.80;99.90;;;;;;5027273;28;20076;-88
2024/01/25 06:38:29;;;;;;;;;;;8.90;99.90;;;;;;5032878;28;19946;-88
2024/01/25 06:40:54;;;;;;;;;;;8.90;99.90;;;;;;5030471;28;19989;-90
2024/01/25 06:43:20;;;;;;;;;;;8.90;99.90;;;;;;5026503;28;20060;-88
2024/01/25 06:45:46;;;;;;;;;;;9.00;99.90;;;;;;5030382;28;19950;-90
2024/01/25 06:48:11;;;;;;;;;;;9.00;99.90;;;;;;5035792;28;20005;-88
2024/01/25 06:50:37;;;;;;;;;;;9.00;99.90;;;;;;5028792;28;19953;-88
2024/01/25 06:53:03;;;;;;;;;;;9.00;99.90;;;;;;5031653;28;19959;-88
2024/01/25 06:55:29;;;;;;;;;;;9.00;99.90;;;;;;5030702;28;19936;-89
2024/01/25 06:57:55;;;;;;;;;;;9.10;99.90;;;;;;5029123;28;19960;-88
2024/01/25 07:00:20;;;;;;;;;;;9.10;99.90;;;;;;5034424;28;20311;-87
2024/01/25 07:02:46;;;;;;;;;;;9.10;99.90;;;;;;5030681;28;19952;-88
2024/01/25 07:05:12;;;;;;;;;;;9.10;99.90;;;;;;5038294;28;19948;-88
2024/01/25 07:07:38;;;;;;;;;;;9.10;99.90;;;;;;5029290;28;19943;-88
2024/01/25 07:10:04;;;;;;;;;;;9.10;99.90;;;;;;5032853;28;19947;-88
2024/01/25 07:12:30;;;;;;;;;;;9.10;99.90;;;;;;5034244;28;19946;-88
2024/01/25 07:14:55;;;;;;;;;;;9.20;99.90;;;;;;5036259;28;19943;-88
2024/01/25 07:17:21;;;;;;;;;;;9.20;99.90;;;;;;5034742;28;19957;-87
2024/01/25 07:19:46;;;;;;;;;;;9.20;99.90;;;;;;5035094;28;19935;-89
2024/01/25 07:22:14;;;;;;;;;;;9.20;99.90;;;;;;5032477;28;20051;-87
2024/01/25 07:24:40;;;;;;;;;;;9.20;99.90;;;;;;5025907;28;19933;-88
2024/01/25 07:27:05;;;;;;;;;;;9.30;99.90;;;;;;5030987;28;19953;-88
2024/01/25 07:29:31;;;;;;;;;;;9.20;99.90;;;;;;5033748;28;20436;-88
2024/01/25 07:31:56;;;;;;;;;;;9.20;99.90;;;;;;5026700;28;25077;-88
2024/01/25 07:34:22;;;;;;;;;;;9.20;99.90;;;;;;5032185;28;20401;-89
2024/01/25 07:36:48;;;;;;;;;;;9.20;99.90;;;;;;5026672;28;19978;-87
2024/01/25 07:39:13;;;;;;;;;;;9.30;99.90;;;;;;5027408;28;20034;-88
2024/01/25 07:41:39;;;;;;;;;;;9.30;99.90;;;;;;5035416;28;19950;-85
2024/01/25 07:44:07;;;;;;;;;;;9.20;99.90;;;;;;5034152;28;19947;-84
2024/01/25 07:46:32;;;;;;;;;;;9.30;99.90;;;;;;5033095;28;19959;-86
2024/01/25 07:49:01;;;;;;;;;;;9.30;99.90;;;;;;5021620;28;20318;-88
2024/01/25 07:51:31;;;;;;;;;;;9.40;99.90;;;;;;5018510;28;20005;-85
2024/01/25 07:53:56;;;;;;;;;;;9.40;99.90;;;;;;5024067;28;19940;-87
2024/01/25 07:56:22;;;;;;;;;;;9.40;99.90;;;;;;5022260;28;20670;-87
2024/01/25 07:58:49;;;;;;;;;;;9.40;99.90;;;;;;5017604;28;20325;-86
2024/01/25 08:01:29;;;;;;;;;;;9.50;99.90;;;;;;5017693;28;19964;-87
2024/01/25 08:03:55;;;;;;;;;;;9.50;99.90;;;;;;5027905;28;19972;-87
2024/01/25 08:06:22;;;;;;;;;;;9.50;99.90;;;;;;5026302;28;19950;-88
2024/01/25 08:08:47;;;;;;;;;;;9.50;99.90;;;;;;5028665;28;21270;-87
2024/01/25 08:11:13;;;;;;;;;;;9.50;99.90;;;;;;5027059;28;19996;-87
2024/01/25 08:14:00;;;;;;;;;;;9.60;99.90;;;;;;5023321;28;19943;-85
2024/01/25 08:16:38;;;;;;;;;;;9.60;99.90;;;;;;5029926;28;19997;-85
2024/01/25 08:19:26;;;;;;;;;;;9.60;99.90;;;;;;5030067;28;19950;-84
2024/01/25 08:40:26;;;;;;;;;;;9.90;99.90;;;;;;5012790;28;19965;-85
2024/01/25 08:44:07;;;;;;;;;;;9.90;99.90;;;;;;5000572;28;19949;-86
2024/01/25 08:45:50;;;;;;;;;;;9.90;99.90;;;;;;4995692;28;20321;-83
2024/01/25 08:48:41;;;;;;;;;;;10.00;99.90;;;;;;5000059;28;20013;-84
2024/01/25 08:51:11;;;;;;;;;;;10.00;99.90;;;;;;4993846;28;20905;-83
2024/01/25 08:53:39;;;;;;;;;;;10.10;99.90;;;;;;5002254;28;19944;-87
2024/01/25 08:56:05;;;;;;;;;;;10.20;99.90;;;;;;4969803;28;20085;-87
2024/01/25 08:58:30;;;;;;;;;;;10.20;99.90;;;;;;5002024;28;20543;-82
2024/01/25 09:00:56;;;;;;;;;;;10.20;99.90;;;;;;4994466;28;20690;-84
2024/01/25 09:03:23;;;;;;;;;;;10.30;99.90;;;;;;4987546;28;20319;-82
2024/01/25 09:06:20;;;;;;;;;;;10.30;99.90;;;;;;4989829;28;19936;-84
2024/01/25 09:08:45;;;;;;;;;;;10.30;99.90;;;;;;4980837;28;20477;-83
2024/01/25 09:11:11;;;;;;;;;;;10.30;99.90;;;;;;4983416;28;19960;-79
2024/01/25 09:13:36;;;;;;;;;;;10.30;99.90;;;;;;4986040;28;20069;-80
2024/01/25 09:16:02;;;;;;;;;;;10.30;99.90;;;;;;4986947;28;21785;-81
2024/01/25 09:18:27;;;;;;;;;;;10.40;99.90;;;;;;4994981;28;20125;-82
2024/01/25 09:20:53;;;;;;;;;;;10.30;99.90;;;;;;4993619;28;19943;-83
2024/01/25 09:23:20;;;;;;;;;;;10.30;99.90;;;;;;4994406;28;19974;-83
2024/01/25 09:25:45;;;;;;;;;;;10.40;99.90;;;;;;4982625;28;19953;-81
2024/01/25 09:28:12;;;;;;;;;;;10.40;99.90;;;;;;4993596;28;19948;-84
2024/01/25 09:30:38;;;;;;;;;;;10.40;99.90;;;;;;4996145;28;19955;-82
2024/01/25 09:33:04;;;;;;;;;;;10.40;99.90;;;;;;4998699;28;20196;-82
2024/01/25 09:35:29;;;;;;;;;;;10.40;99.90;;;;;;4996653;28;20056;-85
2024/01/25 09:37:55;;;;;;;;;;;10.40;99.90;;;;;;4984054;28;20240;-87
2024/01/25 09:40:21;;;;;;;;;;;10.50;99.90;;;;;;4993697;28;19937;-82
2024/01/25 09:42:47;;;;;;;;;;;10.50;99.90;;;;;;4990220;28;19961;-82
2024/01/25 09:45:16;;;;;;;;;;;10.60;99.90;;;;;;4996656;28;20195;-86
2024/01/25 09:47:42;;;;;;;;;;;10.60;99.90;;;;;;4996822;28;20512;-83
2024/01/25 09:50:08;;;;;;;;;;;10.60;99.90;;;;;;4990663;28;19963;-86
2024/01/25 09:52:34;;;;;;;;;;;10.60;99.90;;;;;;4993938;28;19944;-85
2024/01/25 09:55:07;;;;;;;;;;;10.60;99.90;;;;;;4991325;28;19937;-88
2024/01/25 09:57:37;;;;;;;;;;;10.70;99.90;;;;;;4999305;28;20234;-91
2024/01/25 10:00:03;;;;;;;;;;;10.70;99.90;;;;;;4988042;28;21113;-85
2024/01/25 10:02:29;;;;;;;;;;;10.80;99.90;;;;;;4998324;28;20011;-86
2024/01/25 10:04:54;;;;;;;;;;;10.90;99.90;;;;;;4997387;28;20438;-86
2024/01/25 10:07:40;;;;;;;;;;;10.90;99.90;;;;;;4994655;28;19981;-86
2024/01/25 10:10:09;;;;;;;;;;;11.00;99.90;;;;;;4990522;28;20376;-88
2024/01/25 10:12:34;;;;;;;;;;;11.00;99.90;;;;;;4992315;28;19952;-85
2024/01/25 10:15:00;;;;;;;;;;;11.00;99.90;;;;;;4986535;28;20104;-84
2024/01/25 10:17:38;;;;;;;;;;;11.00;99.90;;;;;;4990536;28;19952;-88
2024/01/25 10:20:14;;;;;;;;;;;11.00;99.90;;;;;;4988916;28;19948;-86
2024/01/25 10:22:39;;;;;;;;;;;11.10;99.90;;;;;;4994251;28;20003;-88
2024/01/25 10:25:11;;;;;;;;;;;11.10;99.90;;;;;;4992034;28;19952;-82
2024/01/25 10:27:37;;;;;;;;;;;11.20;99.90;;;;;;4992539;28;20035;-87
2024/01/25 10:30:04;;;;;;;;;;;11.20;99.90;;;;;;4991029;28;20436;-85
2024/01/25 10:32:29;;;;;;;;;;;11.20;99.90;;;;;;4994346;28;20555;-88
2024/01/25 10:34:59;;;;;;;;;;;11.30;99.90;;;;;;4989899;28;19967;-87
2024/01/25 10:37:27;;;;;;;;;;;11.40;99.90;;;;;;4993163;28;19948;-86
2024/01/25 10:40:07;;;;;;;;;;;11.60;99.90;;;;;;5007069;28;19934;-84
2024/01/25 10:42:33;;;;;;;;;;;11.60;99.90;;;;;;5012852;28;20023;-84
2024/01/25 10:44:59;;;;;;;;;;;11.60;99.90;;;;;;5026980;28;19951;-84
2024/01/25 10:47:25;;;;;;;;;;;11.60;99.90;;;;;;5020215;28;20100;-85
2024/01/25 10:49:52;;;;;;;;;;;11.60;99.90;;;;;;5014291;28;19960;-86
2024/01/25 10:52:17;;;;;;;;;;;11.40;99.90;;;;;;5000641;28;20474;-82
2024/01/25 10:54:43;;;;;;;;;;;11.40;99.90;;;;;;4990851;28;19931;-83
2024/01/25 10:57:08;;;;;;;;;;;11.40;99.90;;;;;;4984752;28;20133;-84
2024/01/25 10:59:34;;;;;;;;;;;11.30;99.90;;;;;;4990337;28;20002;-85
2024/01/25 11:02:03;;;;;;;;;;;11.30;99.90;;;;;;5002471;28;19938;-84
2024/01/25 11:04:29;;;;;;;;;;;11.30;99.90;;;;;;4996144;28;20188;-85
2024/01/25 11:07:04;;;;;;;;;;;11.30;99.90;;;;;;4992421;28;19953;-87
2024/01/25 11:09:48;;;;;;;;;;;11.30;99.90;;;;;;4992980;28;19956;-88
2024/01/25 11:12:14;;;;;;;;;;;11.30;99.90;;;;;;4992621;28;19958;-82
2024/01/25 11:14:40;;;;;;;;;;;11.20;99.90;;;;;;4987872;28;19994;-86
2024/01/25 11:17:21;;;;;;;;;;;11.20;99.90;;;;;;4999952;28;19999;-83
2024/01/25 11:19:49;;;;;;;;;;;11.20;99.90;;;;;;4993381;28;20008;-83
2024/01/25 11:22:15;;;;;;;;;;;11.20;99.90;;;;;;4990498;28;20607;-85
2024/01/25 11:24:42;;;;;;;;;;;11.20;99.90;;;;;;4993450;28;19975;-84
2024/01/25 11:27:09;;;;;;;;;;;11.20;99.90;;;;;;4997480;28;20319;-84
2024/01/25 11:29:35;;;;;;;;;;;11.20;99.90;;;;;;4101178;28;10001691;-84
2024/01/25 11:32:02;;;;;;;;;;;11.20;99.90;;;;;;4881983;28;20106;-82
2024/01/25 11:34:28;;;;;;;;;;;11.20;99.90;;;;;;4939528;28;19948;-81
2024/01/25 11:36:53;;;;;;;;;;;11.30;99.90;;;;;;4940714;28;19946;-83
2024/01/25 11:39:19;;;;;;;;;;;11.30;99.90;;;;;;4938728;28;20099;-85
2024/01/25 11:41:45;;;;;;;;;;;11.40;99.90;;;;;;4941605;28;19955;-82
2024/01/25 11:44:11;;;;;;;;;;;11.40;99.90;;;;;;4933260;28;20371;-83
2024/01/25 11:46:39;;;;;;;;;;;11.40;99.90;;;;;;4949942;28;19939;-87
2024/01/25 11:49:07;;;;;;;;;;;11.40;99.90;;;;;;4947426;28;20437;-81
2024/01/25 11:51:32;;;;;;;;;;;11.40;99.90;;;;;;4945174;28;20055;-83
2024/01/25 11:53:58;;;;;;;;;;;11.40;99.90;;;;;;4939526;28;20893;-86
2024/01/25 11:56:26;;;;;;;;;;;11.40;99.90;;;;;;4930145;28;19945;-85
2024/01/25 11:58:56;;;;;;;;;;;11.40;99.90;;;;;;4930398;28;20038;-89
2024/01/25 12:01:23;;;;;;;;;;;11.40;99.90;;;;;;4932379;28;19989;-85
2024/01/25 12:03:48;;;;;;;;;;;11.50;99.90;;;;;;4930710;28;20034;-82
2024/01/25 12:06:14;;;;;;;;;;;11.50;99.90;;;;;;4931731;28;20308;-83
2024/01/25 12:08:40;;;;;;;;;;;11.60;99.90;;;;;;4929552;28;20349;-87
2024/01/25 12:11:07;;;;;;;;;;;11.60;99.90;;;;;;4940205;28;19952;-84
2024/01/25 12:13:33;;;;;;;;;;;11.60;99.90;;;;;;4928551;28;20264;-84
2024/01/25 12:16:00;;;;;;;;;;;11.60;99.90;;;;;;4916693;28;19948;-81
2024/01/25 12:18:26;;;;;;;;;;;11.70;99.90;;;;;;4923273;28;20594;-80
2024/01/25 12:20:51;;;;;;;;;;;11.70;99.90;;;;;;4933152;28;19952;-85
2024/01/25 12:23:20;;;;;;;;;;;12.00;99.90;;;;;;4936510;28;20041;-86
2024/01/25 12:25:45;;;;;;;;;;;12.10;99.90;;;;;;4921560;28;20459;-86
2024/01/25 12:28:11;;;;;;;;;;;12.20;99.90;;;;;;4927211;28;19995;-85
2024/01/25 12:30:37;;;;;;;;;;;12.30;99.90;;;;;;4926179;28;19953;-84
2024/01/25 12:33:03;;;;;;;;;;;12.20;99.90;;;;;;4936493;28;20024;-85
2024/01/25 12:35:28;;;;;;;;;;;12.20;99.90;;;;;;4929698;28;19949;-84
2024/01/25 12:37:54;;;;;;;;;;;12.00;99.90;;;;;;4928578;28;19948;-84
2024/01/25 12:40:20;;;;;;;;;;;12.00;99.90;;;;;;4935439;28;20429;-85
2024/01/25 12:42:46;;;;;;;;;;;11.90;99.90;;;;;;4930335;28;19942;-85
2024/01/25 12:45:11;;;;;;;;;;;11.90;99.90;;;;;;4924706;28;20138;-83
2024/01/25 12:47:46;;;;;;;;;;;11.90;99.90;;;;;;4925236;28;20245;-84
2024/01/25 12:50:11;;;;;;;;;;;11.80;99.90;;;;;;4946653;28;25121;-88
2024/01/25 12:52:40;;;;;;;;;;;11.80;99.90;;;;;;4950909;28;21923;-86
2024/01/25 12:55:05;;;;;;;;;;;11.70;99.90;;;;;;4953045;28;19960;-82
2024/01/25 12:57:31;;;;;;;;;;;11.60;99.90;;;;;;4942131;28;19946;-79
2024/01/25 12:59:56;;;;;;;;;;;11.60;99.90;;;;;;4928662;28;19963;-84
2024/01/25 13:02:22;;;;;;;;;;;11.60;99.90;;;;;;4935746;28;20032;-82
2024/01/25 13:04:47;;;;;;;;;;;11.50;99.90;;;;;;4922387;28;20110;-85
2024/01/25 13:07:13;;;;;;;;;;;11.50;99.90;;;;;;4941498;28;20175;-84
2024/01/25 13:09:38;;;;;;;;;;;11.50;99.90;;;;;;4935022;28;20058;-86
2024/01/25 13:12:07;;;;;;;;;;;11.50;99.90;;;;;;4933230;28;20021;-87
2024/01/25 13:14:33;;;;;;;;;;;11.50;99.90;;;;;;4928293;28;20193;-85
2024/01/25 13:16:59;;;;;;;;;;;11.40;99.90;;;;;;4924765;28;19944;-84
2024/01/25 13:19:24;;;;;;;;;;;11.40;99.90;;;;;;4920069;28;19953;-84
2024/01/25 13:21:50;;;;;;;;;;;11.30;99.90;;;;;;4923159;28;19989;-82
2024/01/25 13:24:15;;;;;;;;;;;11.30;99.90;;;;;;4927668;28;20564;-85
2024/01/25 13:26:41;;;;;;;;;;;11.20;99.90;;;;;;4927642;28;19969;-82
2024/01/25 13:29:06;;;;;;;;;;;11.20;99.90;;;;;;4941022;28;20057;-87
2024/01/25 13:31:32;;;;;;;;;;;11.20;99.90;;;;;;4933988;28;19956;-82
2024/01/25 13:33:57;;;;;;;;;;;11.20;99.90;;;;;;4926378;28;19961;-86
2024/01/25 13:36:23;;;;;;;;;;;11.30;99.90;;;;;;4933684;28;19979;-83
2024/01/25 13:38:48;;;;;;;;;;;11.40;99.90;;;;;;4934198;28;20047;-82
2024/01/25 13:41:14;;;;;;;;;;;11.50;99.90;;;;;;4923030;28;19940;-81
2024/01/25 13:43:40;;;;;;;;;;;11.60;99.90;;;;;;4933636;28;20376;-82
2024/01/25 13:46:05;;;;;;;;;;;11.60;99.90;;;;;;4927650;28;19948;-84
2024/01/25 13:48:31;;;;;;;;;;;11.70;99.90;;;;;;4922842;28;20355;-81
2024/01/25 13:50:56;;;;;;;;;;;11.70;99.90;;;;;;4935582;28;20403;-82
2024/01/25 13:53:22;;;;;;;;;;;11.70;99.90;;;;;;4928419;28;20307;-84
2024/01/25 13:55:47;;;;;;;;;;;11.60;99.90;;;;;;4927099;28;20420;-85
2024/01/25 13:58:13;;;;;;;;;;;11.60;99.90;;;;;;4929775;28;19955;-84
2024/01/25 14:00:39;;;;;;;;;;;11.60;99.90;;;;;;4932862;28;19940;-86
2024/01/25 14:03:16;;;;;;;;;;;11.50;99.90;;;;;;4916828;28;20021;-87
2024/01/25 14:05:42;;;;;;;;;;;11.50;99.90;;;;;;4928948;28;20411;-88
2024/01/25 14:08:08;;;;;;;;;;;11.50;99.90;;;;;;4915200;28;19956;-84
2024/01/25 14:10:34;;;;;;;;;;;11.60;99.90;;;;;;4924439;28;20064;-84
2024/01/25 14:13:00;;;;;;;;;;;11.60;99.90;;;;;;4929791;28;20517;-86
2024/01/25 14:15:26;;;;;;;;;;;11.60;99.90;;;;;;4913457;28;20103;-83
2024/01/25 14:17:51;;;;;;;;;;;11.60;99.90;;;;;;4923530;28;20172;-84
2024/01/25 14:20:17;;;;;;;;;;;11.60;99.90;;;;;;4927614;28;20368;-83
2024/01/25 14:22:43;;;;;;;;;;;11.50;99.90;;;;;;4930967;28;20416;-86
2024/01/25 14:25:09;;;;;;;;;;;11.60;99.90;;;;;;4929161;28;20354;-87
2024/01/25 14:27:35;;;;;;;;;;;11.60;99.90;;;;;;4938518;28;19942;-84
2024/01/25 14:30:01;;;;;;;;;;;11.50;99.90;;;;;;4942504;28;20523;-89
2024/01/25 14:32:26;;;;;;;;;;;11.50;99.90;;;;;;4948292;28;20204;-86
2024/01/25 14:34:52;;;;;;;;;;;11.50;99.90;;;;;;4947856;28;20044;-84
2024/01/25 14:37:17;;;;;;;;;;;11.60;99.90;;;;;;4943998;28;20079;-90
2024/01/25 14:39:43;;;;;;;;;;;11.70;99.90;;;;;;4945246;28;20541;-87